sensor_id;sensor_type;location;lat;lon;timestamp;temperature;humidity
25328;DHT22;13279;51.300;12.394;2022-08-05T03:15:30;22.60;1.00
25328;DHT22;13279;51.300;12.394;2022-08-05T03:17:57;22.50;1.00
25328;DHT22;13279;51.300;12.394;2022-08-05T03:20:25;22.40;1.00
25328;DHT22;13279;51.300;12.394;2022-08-05T03:22:53;22.40;1.00
25328;DHT22;13279;51.300;12.394;2022-08-05T03:25:22;22.40;1.00
25328;DHT22;13279;51.300;12.394;2022-08-05T03:27:50;22.30;1.00
25328;DHT22;13279;51.300;12.394;2022-08-05T03:30:18;22.20;1.00
25328;DHT22;13279;51.300;12.394;2022-08-05T03:32:47;22.20;1.00
25328;DHT22;13279;51.300;12.394;2022-08-05T03:37:43;22.20;1.00
25328;DHT22;13279;51.300;12.394;2022-08-05T03:40:11;22.20;1.00
25328;DHT22;13279;51.300;12.394;2022-08-05T03:42:38;22.20;1.00
25328;DHT22;13279;51.300;12.394;2022-08-05T03:45:08;22.20;1.00
25328;DHT22;13279;51.300;12.394;2022-08-05T03:47:35;22.10;1.00
25328;DHT22;13279;51.300;12.394;2022-08-05T03:50:05;22.10;1.00
25328;DHT22;13279;51.300;12.394;2022-08-05T03:52:36;22.10;1.00
25328;DHT22;13279;51.300;12.394;2022-08-05T03:55:11;22.10;1.00
25328;DHT22;13279;51.300;12.394;2022-08-05T03:57:40;22.10;1.00
25328;DHT22;13279;51.300;12.394;2022-08-05T04:00:11;22.10;1.00
25328;DHT22;13279;51.300;12.394;2022-08-05T04:02:44;22.10;1.00
25328;DHT22;13279;51.300;12.394;2022-08-05T04:05:14;22.10;1.00
25328;DHT22;13279;51.300;12.394;2022-08-05T04:07:43;22.00;1.00
25328;DHT22;13279;51.300;12.394;2022-08-05T04:10:11;22.00;1.00
25328;DHT22;13279;51.300;12.394;2022-08-05T04:12:38;22.00;1.00
25328;DHT22;13279;51.300;12.394;2022-08-05T04:15:07;22.00;1.00
25328;DHT22;13279;51.300;12.394;2022-08-05T04:17:34;22.00;1.00
25328;DHT22;13279;51.300;12.394;2022-08-05T04:20:03;22.00;1.00
25328;DHT22;13279;51.300;12.394;2022-08-05T04:22:32;22.00;1.00
25328;DHT22;13279;51.300;12.394;2022-08-05T04:25:00;21.90;1.00
25328;DHT22;13279;51.300;12.394;2022-08-05T04:27:27;21.90;1.00
25328;DHT22;13279;51.300;12.394;2022-08-05T04:29:56;21.90;1.00
25328;DHT22;13279;51.300;12.394;2022-08-05T04:32:24;21.90;1.00
25328;DHT22;13279;51.300;12.394;2022-08-05T04:34:51;22.00;1.00
25328;DHT22;13279;51.300;12.394;2022-08-05T04:37:19;22.00;1.00
25328;DHT22;13279;51.300;12.394;2022-08-05T04:39:48;22.00;1.00
25328;DHT22;13279;51.300;12.394;2022-08-05T04:42:16;22.10;1.00
25328;DHT22;13279;51.300;12.394;2022-08-05T04:44:43;22.10;1.00
25328;DHT22;13279;51.300;12.394;2022-08-05T04:47:11;22.20;1.00
25328;DHT22;13279;51.300;12.394;2022-08-05T04:49:38;22.20;1.00
25328;DHT22;13279;51.300;12.394;2022-08-05T04:52:24;22.10;1.00
25328;DHT22;13279;51.300;12.394;2022-08-05T04:54:53;22.10;1.00
25328;DHT22;13279;51.300;12.394;2022-08-05T04:57:21;22.10;1.00
25328;DHT22;13279;51.300;12.394;2022-08-05T04:59:48;22.00;1.00
25328;DHT22;13279;51.300;12.394;2022-08-05T05:02:16;22.00;1.00
25328;DHT22;13279;51.300;12.394;2022-08-05T05:04:43;22.00;1.00
25328;DHT22;13279;51.300;12.394;2022-08-05T05:07:11;22.00;1.00
25328;DHT22;13279;51.300;12.394;2022-08-05T05:09:39;22.00;1.00
25328;DHT22;13279;51.300;12.394;2022-08-05T05:12:08;22.00;1.00
25328;DHT22;13279;51.300;12.394;2022-08-05T05:14:35;22.00;1.00
25328;DHT22;13279;51.300;12.394;2022-08-05T05:17:03;21.90;1.00
25328;DHT22;13279;51.300;12.394;2022-08-05T05:19:30;22.00;1.00
25328;DHT22;13279;51.300;12.394;2022-08-05T05:21:58;22.00;1.00
25328;DHT22;13279;51.300;12.394;2022-08-05T05:24:25;22.00;1.00
25328;DHT22;13279;51.300;12.394;2022-08-05T05:26:53;22.00;1.00
25328;DHT22;13279;51.300;12.394;2022-08-05T05:29:22;22.00;1.00
25328;DHT22;13279;51.300;12.394;2022-08-05T05:31:49;22.00;1.00
25328;DHT22;13279;51.300;12.394;2022-08-05T05:34:17;22.00;1.00
25328;DHT22;13279;51.300;12.394;2022-08-05T05:36:44;22.10;1.00
25328;DHT22;13279;51.300;12.394;2022-08-05T05:39:12;22.10;1.00
25328;DHT22;13279;51.300;12.394;2022-08-05T05:41:42;22.10;1.00
25328;DHT22;13279;51.300;12.394;2022-08-05T05:44:10;22.10;1.00
25328;DHT22;13279;51.300;12.394;2022-08-05T05:46:39;22.00;1.00
25328;DHT22;13279;51.300;12.394;2022-08-05T05:49:06;22.10;1.00
25328;DHT22;13279;51.300;12.394;2022-08-05T05:51:34;22.10;1.00
25328;DHT22;13279;51.300;12.394;2022-08-05T05:54:01;22.10;1.00
25328;DHT22;13279;51.300;12.394;2022-08-05T05:56:30;22.10;1.00
25328;DHT22;13279;51.300;12.394;2022-08-05T05:58:58;22.20;1.00
25328;DHT22;13279;51.300;12.394;2022-08-05T06:01:25;22.30;1.00
25328;DHT22;13279;51.300;12.394;2022-08-05T06:03:54;22.40;1.00
25328;DHT22;13279;51.300;12.394;2022-08-05T06:06:21;22.50;1.00
25328;DHT22;13279;51.300;12.394;2022-08-05T06:08:49;22.70;1.00
25328;DHT22;13279;51.300;12.394;2022-08-05T06:11:16;22.90;1.00
25328;DHT22;13279;51.300;12.394;2022-08-05T06:13:44;23.10;1.00
25328;DHT22;13279;51.300;12.394;2022-08-05T06:16:11;23.30;1.00
25328;DHT22;13279;51.300;12.394;2022-08-05T06:18:39;23.50;1.00
25328;DHT22;13279;51.300;12.394;2022-08-05T06:21:08;23.70;1.00
25328;DHT22;13279;51.300;12.394;2022-08-05T06:23:35;23.80;1.00
25328;DHT22;13279;51.300;12.394;2022-08-05T06:26:03;23.80;1.00
25328;DHT22;13279;51.300;12.394;2022-08-05T06:28:30;23.80;1.00
25328;DHT22;13279;51.300;12.394;2022-08-05T06:30:58;23.70;1.00
25328;DHT22;13279;51.300;12.394;2022-08-05T06:33:25;23.60;1.00
25328;DHT22;13279;51.300;12.394;2022-08-05T06:35:53;23.60;1.00
25328;DHT22;13279;51.300;12.394;2022-08-05T06:38:21;23.60;1.00
25328;DHT22;13279;51.300;12.394;2022-08-05T06:40:49;23.60;1.00
25328;DHT22;13279;51.300;12.394;2022-08-05T06:43:16;23.50;1.00
25328;DHT22;13279;51.300;12.394;2022-08-05T06:45:44;23.40;1.00
25328;DHT22;13279;51.300;12.394;2022-08-05T06:48:11;23.40;1.00
25328;DHT22;13279;51.300;12.394;2022-08-05T06:50:39;23.30;1.00
25328;DHT22;13279;51.300;12.394;2022-08-05T06:53:06;23.20;1.00
25328;DHT22;13279;51.300;12.394;2022-08-05T06:55:35;23.10;1.00
25328;DHT22;13279;51.300;12.394;2022-08-05T06:58:02;23.10;1.00
25328;DHT22;13279;51.300;12.394;2022-08-05T07:00:30;23.10;1.00
25328;DHT22;13279;51.300;12.394;2022-08-05T07:02:58;23.10;1.00
25328;DHT22;13279;51.300;12.394;2022-08-05T07:05:26;23.20;1.00
25328;DHT22;13279;51.300;12.394;2022-08-05T07:07:53;23.30;1.00
25328;DHT22;13279;51.300;12.394;2022-08-05T07:10:21;23.40;1.00
25328;DHT22;13279;51.300;12.394;2022-08-05T07:12:51;23.40;1.00
25328;DHT22;13279;51.300;12.394;2022-08-05T07:15:37;23.50;1.00
25328;DHT22;13279;51.300;12.394;2022-08-05T07:18:22;23.60;1.00
25328;DHT22;13279;51.300;12.394;2022-08-05T07:20:50;23.60;1.00
25328;DHT22;13279;51.300;12.394;2022-08-05T07:23:18;23.80;1.00
25328;DHT22;13279;51.300;12.394;2022-08-05T07:25:45;23.80;1.00
25328;DHT22;13279;51.300;12.394;2022-08-05T07:28:14;23.80;1.00
25328;DHT22;13279;51.300;12.394;2022-08-05T07:30:42;23.90;1.00
25328;DHT22;13279;51.300;12.394;2022-08-05T07:33:11;23.80;1.00
25328;DHT22;13279;51.300;12.394;2022-08-05T07:35:38;23.90;1.00
25328;DHT22;13279;51.300;12.394;2022-08-05T07:38:06;24.00;1.00
25328;DHT22;13279;51.300;12.394;2022-08-05T07:40:33;24.00;1.00
25328;DHT22;13279;51.300;12.394;2022-08-05T07:43:01;24.00;1.00
25328;DHT22;13279;51.300;12.394;2022-08-05T07:45:30;24.10;1.00
25328;DHT22;13279;51.300;12.394;2022-08-05T07:47:58;24.10;1.00
25328;DHT22;13279;51.300;12.394;2022-08-05T07:50:25;24.00;1.00
25328;DHT22;13279;51.300;12.394;2022-08-05T07:52:53;24.00;1.00
25328;DHT22;13279;51.300;12.394;2022-08-05T07:55:20;24.00;1.00
25328;DHT22;13279;51.300;12.394;2022-08-05T07:57:48;23.90;1.00
25328;DHT22;13279;51.300;12.394;2022-08-05T08:00:16;23.90;1.00
25328;DHT22;13279;51.300;12.394;2022-08-05T08:02:45;24.00;1.00
25328;DHT22;13279;51.300;12.394;2022-08-05T08:05:12;24.20;1.00
25328;DHT22;13279;51.300;12.394;2022-08-05T08:07:40;24.50;1.00
25328;DHT22;13279;51.300;12.394;2022-08-05T08:10:07;24.50;1.00
25328;DHT22;13279;51.300;12.394;2022-08-05T08:12:35;24.60;1.00
25328;DHT22;13279;51.300;12.394;2022-08-05T08:15:03;24.60;1.00
25328;DHT22;13279;51.300;12.394;2022-08-05T08:17:31;24.70;99.90
25328;DHT22;13279;51.300;12.394;2022-08-05T08:20:00;24.80;1.00
25328;DHT22;13279;51.300;12.394;2022-08-05T08:22:30;24.80;99.90
25328;DHT22;13279;51.300;12.394;2022-08-05T08:24:58;24.80;99.90
25328;DHT22;13279;51.300;12.394;2022-08-05T08:27:25;24.80;99.90
25328;DHT22;13279;51.300;12.394;2022-08-05T08:29:53;24.70;1.00
25328;DHT22;13279;51.300;12.394;2022-08-05T08:32:20;24.70;99.90
25328;DHT22;13279;51.300;12.394;2022-08-05T08:34:47;24.90;99.90
25328;DHT22;13279;51.300;12.394;2022-08-05T08:37:16;25.10;99.90
25328;DHT22;13279;51.300;12.394;2022-08-05T08:39:44;25.40;99.90
25328;DHT22;13279;51.300;12.394;2022-08-05T08:42:13;25.80;1.00
25328;DHT22;13279;51.300;12.394;2022-08-05T08:44:41;26.00;1.00
25328;DHT22;13279;51.300;12.394;2022-08-05T08:47:10;26.10;1.00
25328;DHT22;13279;51.300;12.394;2022-08-05T08:49:43;26.00;1.00
25328;DHT22;13279;51.300;12.394;2022-08-05T08:52:15;25.90;1.00
25328;DHT22;13279;51.300;12.394;2022-08-05T08:54:45;25.70;1.00
25328;DHT22;13279;51.300;12.394;2022-08-05T08:57:13;25.70;1.00
25328;DHT22;13279;51.300;12.394;2022-08-05T08:59:41;25.60;1.00
25328;DHT22;13279;51.300;12.394;2022-08-05T09:02:08;25.50;1.00
25328;DHT22;13279;51.300;12.394;2022-08-05T09:04:37;25.50;1.00
25328;DHT22;13279;51.300;12.394;2022-08-05T09:07:04;25.50;61.60
25328;DHT22;13279;51.300;12.394;2022-08-05T09:09:33;25.90;1.00
25328;DHT22;13279;51.300;12.394;2022-08-05T09:12:04;26.30;1.00
25328;DHT22;13279;51.300;12.394;2022-08-05T09:14:33;26.60;1.00
25328;DHT22;13279;51.300;12.394;2022-08-05T09:17:00;26.80;99.90
25328;DHT22;13279;51.300;12.394;2022-08-05T09:19:28;27.00;99.90
25328;DHT22;13279;51.300;12.394;2022-08-05T09:21:55;27.20;99.90
25328;DHT22;13279;51.300;12.394;2022-08-05T09:24:22;27.40;68.60
25328;DHT22;13279;51.300;12.394;2022-08-05T09:26:51;27.70;24.70
25328;DHT22;13279;51.300;12.394;2022-08-05T09:29:36;27.70;99.90
25328;DHT22;13279;51.300;12.394;2022-08-05T09:32:05;27.80;99.90
25328;DHT22;13279;51.300;12.394;2022-08-05T09:34:46;27.70;99.90
25328;DHT22;13279;51.300;12.394;2022-08-05T09:37:18;27.50;1.00
25328;DHT22;13279;51.300;12.394;2022-08-05T09:39:46;27.30;1.00
25328;DHT22;13279;51.300;12.394;2022-08-05T09:42:14;27.30;1.00
25328;DHT22;13279;51.300;12.394;2022-08-05T09:44:45;27.20;1.00
25328;DHT22;13279;51.300;12.394;2022-08-05T09:47:17;27.20;1.00
25328;DHT22;13279;51.300;12.394;2022-08-05T09:49:54;27.20;1.00
25328;DHT22;13279;51.300;12.394;2022-08-05T09:52:23;27.20;1.00
25328;DHT22;13279;51.300;12.394;2022-08-05T09:55:11;27.20;1.00
25328;DHT22;13279;51.300;12.394;2022-08-05T09:58:17;27.50;1.00
25328;DHT22;13279;51.300;12.394;2022-08-05T10:08:05;27.70;99.90
25328;DHT22;13279;51.300;12.394;2022-08-05T10:11:05;28.10;1.00
25328;DHT22;13279;51.300;12.394;2022-08-05T10:14:27;28.50;1.00
25328;DHT22;13279;51.300;12.394;2022-08-05T10:20:42;29.00;1.00
25328;DHT22;13279;51.300;12.394;2022-08-05T10:23:53;29.00;1.00
25328;DHT22;13279;51.300;12.394;2022-08-05T10:26:23;29.20;1.00
25328;DHT22;13279;51.300;12.394;2022-08-05T10:28:50;29.10;99.90
25328;DHT22;13279;51.300;12.394;2022-08-05T10:31:18;28.80;99.90
25328;DHT22;13279;51.300;12.394;2022-08-05T10:33:47;28.70;1.00
25328;DHT22;13279;51.300;12.394;2022-08-05T10:36:16;28.60;99.90
25328;DHT22;13279;51.300;12.394;2022-08-05T10:38:46;28.60;1.00
25328;DHT22;13279;51.300;12.394;2022-08-05T10:41:30;28.60;1.00
25328;DHT22;13279;51.300;12.394;2022-08-05T10:44:02;29.10;1.00
25328;DHT22;13279;51.300;12.394;2022-08-05T10:46:44;29.60;99.90
25328;DHT22;13279;51.300;12.394;2022-08-05T10:49:13;29.60;1.00
25328;DHT22;13279;51.300;12.394;2022-08-05T10:51:42;29.20;99.90
25328;DHT22;13279;51.300;12.394;2022-08-05T10:54:10;29.00;1.00
25328;DHT22;13279;51.300;12.394;2022-08-05T10:56:44;28.90;1.00
25328;DHT22;13279;51.300;12.394;2022-08-05T10:59:15;29.00;99.90
25328;DHT22;13279;51.300;12.394;2022-08-05T11:01:44;29.10;1.00
25328;DHT22;13279;51.300;12.394;2022-08-05T11:04:15;29.30;1.00
25328;DHT22;13279;51.300;12.394;2022-08-05T11:07:04;29.40;1.00
25328;DHT22;13279;51.300;12.394;2022-08-05T11:09:37;29.40;1.00
25328;DHT22;13279;51.300;12.394;2022-08-05T11:12:43;29.40;1.00
25328;DHT22;13279;51.300;12.394;2022-08-05T11:15:20;29.70;1.00
25328;DHT22;13279;51.300;12.394;2022-08-05T11:17:49;30.20;1.00
25328;DHT22;13279;51.300;12.394;2022-08-05T11:20:42;30.60;38.60
25328;DHT22;13279;51.300;12.394;2022-08-05T11:23:32;30.40;1.00
25328;DHT22;13279;51.300;12.394;2022-08-05T11:26:05;30.50;1.00
25328;DHT22;13279;51.300;12.394;2022-08-05T11:28:46;30.60;1.00
25328;DHT22;13279;51.300;12.394;2022-08-05T11:31:25;30.60;99.90
25328;DHT22;13279;51.300;12.394;2022-08-05T11:34:05;30.70;94.80
25328;DHT22;13279;51.300;12.394;2022-08-05T11:36:47;30.40;99.90
25328;DHT22;13279;51.300;12.394;2022-08-05T11:39:46;30.40;99.90
25328;DHT22;13279;51.300;12.394;2022-08-05T11:42:15;30.00;1.00
25328;DHT22;13279;51.300;12.394;2022-08-05T11:44:43;29.90;1.00
25328;DHT22;13279;51.300;12.394;2022-08-05T11:47:14;29.80;1.00
25328;DHT22;13279;51.300;12.394;2022-08-05T11:49:55;29.70;1.00
25328;DHT22;13279;51.300;12.394;2022-08-05T11:52:25;30.10;1.00
25328;DHT22;13279;51.300;12.394;2022-08-05T11:54:54;30.30;99.90
25328;DHT22;13279;51.300;12.394;2022-08-05T11:57:27;30.50;98.00
25328;DHT22;13279;51.300;12.394;2022-08-05T11:59:55;31.00;1.00
25328;DHT22;13279;51.300;12.394;2022-08-05T12:02:28;31.30;1.00
25328;DHT22;13279;51.300;12.394;2022-08-05T12:04:58;31.70;1.00
25328;DHT22;13279;51.300;12.394;2022-08-05T12:07:36;32.10;1.00
25328;DHT22;13279;51.300;12.394;2022-08-05T12:10:06;32.20;1.00
25328;DHT22;13279;51.300;12.394;2022-08-05T12:12:34;32.20;1.00
25328;DHT22;13279;51.300;12.394;2022-08-05T12:15:02;32.40;1.00
25328;DHT22;13279;51.300;12.394;2022-08-05T12:17:34;32.40;1.00
25328;DHT22;13279;51.300;12.394;2022-08-05T12:20:06;32.20;1.00
25328;DHT22;13279;51.300;12.394;2022-08-05T12:22:35;31.90;1.00
25328;DHT22;13279;51.300;12.394;2022-08-05T12:25:03;31.90;1.00
25328;DHT22;13279;51.300;12.394;2022-08-05T12:27:31;32.10;1.00
25328;DHT22;13279;51.300;12.394;2022-08-05T12:30:00;32.20;1.00
25328;DHT22;13279;51.300;12.394;2022-08-05T12:32:30;32.20;1.00
25328;DHT22;13279;51.300;12.394;2022-08-05T12:34:58;32.30;1.00
25328;DHT22;13279;51.300;12.394;2022-08-05T12:37:26;32.20;1.00
25328;DHT22;13279;51.300;12.394;2022-08-05T12:39:57;32.10;1.00
25328;DHT22;13279;51.300;12.394;2022-08-05T12:42:28;32.40;1.00
25328;DHT22;13279;51.300;12.394;2022-08-05T12:45:01;32.60;1.00
25328;DHT22;13279;51.300;12.394;2022-08-05T12:47:29;32.70;1.00
25328;DHT22;13279;51.300;12.394;2022-08-05T12:49:58;33.00;1.00
25328;DHT22;13279;51.300;12.394;2022-08-05T12:52:26;33.20;1.00
25328;DHT22;13279;51.300;12.394;2022-08-05T12:54:53;33.60;99.90
25328;DHT22;13279;51.300;12.394;2022-08-05T12:57:22;33.60;99.90
25328;DHT22;13279;51.300;12.394;2022-08-05T12:59:51;33.50;99.90
25328;DHT22;13279;51.300;12.394;2022-08-05T13:02:20;33.20;99.90
25328;DHT22;13279;51.300;12.394;2022-08-05T13:04:48;32.40;99.90
25328;DHT22;13279;51.300;12.394;2022-08-05T13:07:18;31.90;1.00
25328;DHT22;13279;51.300;12.394;2022-08-05T13:09:50;31.60;1.00
25328;DHT22;13279;51.300;12.394;2022-08-05T13:12:19;31.40;1.00
25328;DHT22;13279;51.300;12.394;2022-08-05T13:14:50;30.90;1.00
25328;DHT22;13279;51.300;12.394;2022-08-05T13:17:19;30.70;99.90
25328;DHT22;13279;51.300;12.394;2022-08-05T13:19:58;30.70;99.90
25328;DHT22;13279;51.300;12.394;2022-08-05T13:22:27;30.70;99.90
25328;DHT22;13279;51.300;12.394;2022-08-05T13:24:54;30.80;99.90
25328;DHT22;13279;51.300;12.394;2022-08-05T13:27:26;30.80;99.90
25328;DHT22;13279;51.300;12.394;2022-08-05T13:29:55;30.80;1.00
25328;DHT22;13279;51.300;12.394;2022-08-05T13:32:23;30.80;1.00
25328;DHT22;13279;51.300;12.394;2022-08-05T13:34:51;30.70;1.00
25328;DHT22;13279;51.300;12.394;2022-08-05T13:37:20;30.60;1.00
25328;DHT22;13279;51.300;12.394;2022-08-05T13:39:48;30.40;1.00
25328;DHT22;13279;51.300;12.394;2022-08-05T13:42:16;30.40;1.00
25328;DHT22;13279;51.300;12.394;2022-08-05T13:44:44;30.40;1.00
25328;DHT22;13279;51.300;12.394;2022-08-05T13:47:14;30.40;1.00
25328;DHT22;13279;51.300;12.394;2022-08-05T13:49:41;30.50;1.00
25328;DHT22;13279;51.300;12.394;2022-08-05T13:52:10;30.30;99.90
25328;DHT22;13279;51.300;12.394;2022-08-05T13:54:38;30.20;1.00
25328;DHT22;13279;51.300;12.394;2022-08-05T13:57:06;30.40;55.10
25328;DHT22;13279;51.300;12.394;2022-08-05T13:59:35;31.10;1.00
25328;DHT22;13279;51.300;12.394;2022-08-05T14:02:05;32.10;1.00
25328;DHT22;13279;51.300;12.394;2022-08-05T14:04:35;32.70;99.90
25328;DHT22;13279;51.300;12.394;2022-08-05T14:07:23;33.10;99.90
25328;DHT22;13279;51.300;12.394;2022-08-05T14:09:51;33.50;1.00
25328;DHT22;13279;51.300;12.394;2022-08-05T14:12:18;33.40;1.00
25328;DHT22;13279;51.300;12.394;2022-08-05T14:14:46;33.00;1.00
25328;DHT22;13279;51.300;12.394;2022-08-05T14:17:13;32.70;1.00
25328;DHT22;13279;51.300;12.394;2022-08-05T14:19:43;32.20;1.00
25328;DHT22;13279;51.300;12.394;2022-08-05T14:22:11;31.80;74.70
25328;DHT22;13279;51.300;12.394;2022-08-05T14:24:38;31.40;99.90
25328;DHT22;13279;51.300;12.394;2022-08-05T14:27:06;31.30;99.90
25328;DHT22;13279;51.300;12.394;2022-08-05T14:29:34;31.40;99.90
25328;DHT22;13279;51.300;12.394;2022-08-05T14:32:01;31.80;99.90
25328;DHT22;13279;51.300;12.394;2022-08-05T14:34:29;32.20;88.40
25328;DHT22;13279;51.300;12.394;2022-08-05T14:36:58;32.50;12.20
25328;DHT22;13279;51.300;12.394;2022-08-05T14:39:26;32.80;1.00
25328;DHT22;13279;51.300;12.394;2022-08-05T14:41:54;32.70;1.00
25328;DHT22;13279;51.300;12.394;2022-08-05T14:44:22;32.80;1.00
25328;DHT22;13279;51.300;12.394;2022-08-05T14:46:49;32.70;1.00
25328;DHT22;13279;51.300;12.394;2022-08-05T14:49:17;32.60;1.00
25328;DHT22;13279;51.300;12.394;2022-08-05T14:51:45;32.10;1.00
25328;DHT22;13279;51.300;12.394;2022-08-05T14:54:14;31.70;60.60
25328;DHT22;13279;51.300;12.394;2022-08-05T14:56:42;31.40;99.90
25328;DHT22;13279;51.300;12.394;2022-08-05T14:59:09;31.40;99.90
25328;DHT22;13279;51.300;12.394;2022-08-05T15:01:37;31.30;99.90
25328;DHT22;13279;51.300;12.394;2022-08-05T15:04:09;31.10;99.90
25328;DHT22;13279;51.300;12.394;2022-08-05T15:06:37;31.20;99.90
25328;DHT22;13279;51.300;12.394;2022-08-05T15:09:04;31.60;99.90
25328;DHT22;13279;51.300;12.394;2022-08-05T15:11:34;32.20;99.90
25328;DHT22;13279;51.300;12.394;2022-08-05T15:14:02;32.60;99.90
25328;DHT22;13279;51.300;12.394;2022-08-05T15:16:30;33.20;13.10
25328;DHT22;13279;51.300;12.394;2022-08-05T15:18:58;32.80;1.00
25328;DHT22;13279;51.300;12.394;2022-08-05T15:21:25;32.80;1.00
25328;DHT22;13279;51.300;12.394;2022-08-05T15:23:53;32.80;1.00
25328;DHT22;13279;51.300;12.394;2022-08-05T15:26:21;33.00;1.00
25328;DHT22;13279;51.300;12.394;2022-08-05T15:28:50;32.60;1.00
25328;DHT22;13279;51.300;12.394;2022-08-05T15:31:17;32.10;1.00
25328;DHT22;13279;51.300;12.394;2022-08-05T15:33:45;31.40;99.90
25328;DHT22;13279;51.300;12.394;2022-08-05T15:36:12;30.70;1.00
25328;DHT22;13279;51.300;12.394;2022-08-05T15:38:40;29.70;1.00
25328;DHT22;13279;51.300;12.394;2022-08-05T15:41:07;28.70;99.90
25328;DHT22;13279;51.300;12.394;2022-08-05T15:43:35;28.30;1.00
25328;DHT22;13279;51.300;12.394;2022-08-05T15:46:04;27.60;1.00
25328;DHT22;13279;51.300;12.394;2022-08-05T15:48:34;27.40;96.70
25328;DHT22;13279;51.300;12.394;2022-08-05T15:51:02;27.00;99.90
25328;DHT22;13279;51.300;12.394;2022-08-05T15:53:30;26.70;1.00
25328;DHT22;13279;51.300;12.394;2022-08-05T15:55:57;26.60;1.00
25328;DHT22;13279;51.300;12.394;2022-08-05T15:58:25;26.50;1.00
25328;DHT22;13279;51.300;12.394;2022-08-05T16:00:53;26.60;1.00
25328;DHT22;13279;51.300;12.394;2022-08-05T16:03:22;26.30;1.00
25328;DHT22;13279;51.300;12.394;2022-08-05T16:05:52;26.00;1.00
25328;DHT22;13279;51.300;12.394;2022-08-05T16:08:19;25.60;99.90
25328;DHT22;13279;51.300;12.394;2022-08-05T16:10:46;25.40;99.90
25328;DHT22;13279;51.300;12.394;2022-08-05T16:13:14;24.90;99.90
25328;DHT22;13279;51.300;12.394;2022-08-05T16:15:42;24.60;1.00
25328;DHT22;13279;51.300;12.394;2022-08-05T16:18:09;24.40;1.00
25328;DHT22;13279;51.300;12.394;2022-08-05T16:20:38;24.10;1.00
25328;DHT22;13279;51.300;12.394;2022-08-05T16:23:06;23.70;1.00
25328;DHT22;13279;51.300;12.394;2022-08-05T16:25:34;23.30;1.00
25328;DHT22;13279;51.300;12.394;2022-08-05T16:28:01;23.10;1.00
25328;DHT22;13279;51.300;12.394;2022-08-05T16:30:29;22.90;1.00
25328;DHT22;13279;51.300;12.394;2022-08-05T16:32:58;22.80;1.00
25328;DHT22;13279;51.300;12.394;2022-08-05T16:35:26;22.40;1.00
25328;DHT22;13279;51.300;12.394;2022-08-05T16:37:55;22.00;1.00
25328;DHT22;13279;51.300;12.394;2022-08-05T16:40:23;21.80;1.00
25328;DHT22;13279;51.300;12.394;2022-08-05T16:42:50;21.70;1.00
25328;DHT22;13279;51.300;12.394;2022-08-05T16:45:18;21.50;1.00
25328;DHT22;13279;51.300;12.394;2022-08-05T16:47:45;21.40;1.40
25328;DHT22;13279;51.300;12.394;2022-08-05T16:50:13;21.30;1.00
25328;DHT22;13279;51.300;12.394;2022-08-05T16:52:40;21.20;1.00
25328;DHT22;13279;51.300;12.394;2022-08-05T16:55:09;21.10;1.00
25328;DHT22;13279;51.300;12.394;2022-08-05T16:57:37;21.00;1.00
25328;DHT22;13279;51.300;12.394;2022-08-05T17:00:06;21.40;1.00
25328;DHT22;13279;51.300;12.394;2022-08-05T17:02:35;20.90;1.00
25328;DHT22;13279;51.300;12.394;2022-08-05T17:05:03;20.80;1.00
25328;DHT22;13279;51.300;12.394;2022-08-05T17:07:31;21.20;1.00
25328;DHT22;13279;51.300;12.394;2022-08-05T17:09:59;20.80;1.00
25328;DHT22;13279;51.300;12.394;2022-08-05T17:12:28;20.80;1.00
25328;DHT22;13279;51.300;12.394;2022-08-05T17:14:55;20.90;1.00
25328;DHT22;13279;51.300;12.394;2022-08-05T17:17:23;20.90;1.00
25328;DHT22;13279;51.300;12.394;2022-08-05T17:19:58;20.90;1.00
25328;DHT22;13279;51.300;12.394;2022-08-05T17:22:26;20.90;1.00
25328;DHT22;13279;51.300;12.394;2022-08-05T17:24:54;20.90;1.00
25328;DHT22;13279;51.300;12.394;2022-08-05T17:27:22;20.80;1.00
25328;DHT22;13279;51.300;12.394;2022-08-05T17:29:50;20.70;1.00
25328;DHT22;13279;51.300;12.394;2022-08-05T17:32:18;20.60;1.00
25328;DHT22;13279;51.300;12.394;2022-08-05T17:34:46;20.60;1.00
25328;DHT22;13279;51.300;12.394;2022-08-05T17:37:14;20.70;1.00
25328;DHT22;13279;51.300;12.394;2022-08-05T17:39:41;20.70;1.00
25328;DHT22;13279;51.300;12.394;2022-08-05T17:42:09;20.70;1.00
25328;DHT22;13279;51.300;12.394;2022-08-05T17:44:36;20.60;1.00
25328;DHT22;13279;51.300;12.394;2022-08-05T17:47:06;20.40;1.00
25328;DHT22;13279;51.300;12.394;2022-08-05T17:49:33;20.40;1.00
25328;DHT22;13279;51.300;12.394;2022-08-05T17:52:01;20.50;1.00
25328;DHT22;13279;51.300;12.394;2022-08-05T17:54:28;20.60;1.00
25328;DHT22;13279;51.300;12.394;2022-08-05T17:56:56;20.60;1.00
25328;DHT22;13279;51.300;12.394;2022-08-05T17:59:25;20.60;1.00
25328;DHT22;13279;51.300;12.394;2022-08-05T18:01:53;20.60;1.00
25328;DHT22;13279;51.300;12.394;2022-08-05T18:04:22;20.50;1.00
25328;DHT22;13279;51.300;12.394;2022-08-05T18:06:49;20.40;1.00
25328;DHT22;13279;51.300;12.394;2022-08-05T18:09:17;20.30;1.00
25328;DHT22;13279;51.300;12.394;2022-08-05T18:11:44;20.30;1.00
25328;DHT22;13279;51.300;12.394;2022-08-05T18:14:11;20.20;1.00
25328;DHT22;13279;51.300;12.394;2022-08-05T18:16:39;20.10;1.00
25328;DHT22;13279;51.300;12.394;2022-08-05T18:19:07;20.00;1.00
25328;DHT22;13279;51.300;12.394;2022-08-05T18:21:36;20.00;1.00
25328;DHT22;13279;51.300;12.394;2022-08-05T18:24:04;20.00;1.00
25328;DHT22;13279;51.300;12.394;2022-08-05T18:26:31;20.00;1.00
25328;DHT22;13279;51.300;12.394;2022-08-05T18:28:59;20.00;1.00
25328;DHT22;13279;51.300;12.394;2022-08-05T18:31:27;20.00;1.00
25328;DHT22;13279;51.300;12.394;2022-08-05T18:33:55;20.00;1.00
25328;DHT22;13279;51.300;12.394;2022-08-05T18:36:22;19.90;1.00
25328;DHT22;13279;51.300;12.394;2022-08-05T18:38:51;19.90;1.00
25328;DHT22;13279;51.300;12.394;2022-08-05T18:41:18;19.90;1.00
25328;DHT22;13279;51.300;12.394;2022-08-05T18:43:46;19.90;1.00
25328;DHT22;13279;51.300;12.394;2022-08-05T18:46:13;19.90;1.00
25328;DHT22;13279;51.300;12.394;2022-08-05T18:48:41;19.80;1.00
25328;DHT22;13279;51.300;12.394;2022-08-05T18:51:09;19.80;1.00
25328;DHT22;13279;51.300;12.394;2022-08-05T18:53:56;19.80;1.00
25328;DHT22;13279;51.300;12.394;2022-08-05T18:56:24;19.80;1.00
25328;DHT22;13279;51.300;12.394;2022-08-05T18:58:51;19.80;1.00
25328;DHT22;13279;51.300;12.394;2022-08-05T19:01:19;19.70;1.00
25328;DHT22;13279;51.300;12.394;2022-08-05T19:03:47;19.70;1.00
25328;DHT22;13279;51.300;12.394;2022-08-05T19:06:15;19.60;1.00
25328;DHT22;13279;51.300;12.394;2022-08-05T19:08:43;19.70;1.00
25328;DHT22;13279;51.300;12.394;2022-08-05T19:11:12;19.60;1.00